Time;durP1;ratioP1;P1;durP2;ratioP2;P2;SDS_P1;SDS_P2;PMS_P1;PMS_P2;Temp;Humidity;BMP_temperature;BMP_pressure;BME280_temperature;BME280_humidity;BME280_pressure;Samples;Min_cycle;Max_cycle;Signal;HPM_P1;HPM_P2
2022/07/05 00:01:43;;;;;;;3.00;2.47;;;;;;;15.99;63.68;101931.28;4981849;28;20027;-79
2022/07/05 00:04:09;;;;;;;4.65;2.70;;;;;;;15.92;63.87;101925.38;4969650;28;20484;-79
2022/07/05 00:06:34;;;;;;;3.17;2.80;;;;;;;15.86;64.33;101920.38;4969892;28;20030;-79
2022/07/05 00:08:59;;;;;;;4.15;2.65;;;;;;;15.84;64.63;101921.38;4969128;28;20040;-80
2022/07/05 00:11:25;;;;;;;3.60;2.88;;;;;;;15.80;64.58;101926.09;4968644;28;20033;-79
2022/07/05 00:13:50;;;;;;;3.65;2.65;;;;;;;15.78;64.95;101925.28;4970432;28;20030;-79
2022/07/05 00:16:15;;;;;;;3.83;2.88;;;;;;;15.78;65.05;101917.25;4969571;28;20065;-79
2022/07/05 00:18:41;;;;;;;4.30;2.65;;;;;;;15.77;64.82;101920.88;4968683;28;20363;-79
2022/07/05 00:21:06;;;;;;;2.95;2.50;;;;;;;15.71;65.47;101921.22;4968498;28;20125;-79
2022/07/05 00:23:32;;;;;;;4.63;2.63;;;;;;;15.66;65.70;101925.97;4970956;28;20452;-79
2022/07/05 00:25:57;;;;;;;3.78;2.70;;;;;;;15.62;65.91;101921.69;4970086;28;20042;-79
2022/07/05 00:28:23;;;;;;;3.90;2.72;;;;;;;15.55;65.98;101918.50;4968694;28;20113;-79
2022/07/05 00:30:48;;;;;;;5.00;2.65;;;;;;;15.52;66.41;101918.66;4967467;28;20035;-80
2022/07/05 00:33:14;;;;;;;4.38;2.78;;;;;;;15.45;66.40;101918.09;4967613;28;20027;-79
2022/07/05 00:35:39;;;;;;;5.13;3.17;;;;;;;15.42;67.07;101915.63;4969349;28;20039;-79
2022/07/05 00:38:04;;;;;;;5.65;2.75;;;;;;;15.38;66.89;101918.50;4968289;28;20262;-79
2022/07/05 00:40:30;;;;;;;4.20;2.70;;;;;;;15.33;67.34;101916.09;4967708;28;20046;-80
2022/07/05 00:42:55;;;;;;;4.13;2.72;;;;;;;15.28;67.30;101910.09;4961955;28;20965;-80
2022/07/05 00:45:21;;;;;;;4.95;2.78;;;;;;;15.27;67.65;101918.25;4969657;28;20031;-80
2022/07/05 00:47:46;;;;;;;5.88;2.90;;;;;;;15.20;68.28;101913.19;4967473;28;20043;-80
2022/07/05 00:50:11;;;;;;;4.72;2.65;;;;;;;15.12;69.13;101909.19;4967926;28;20051;-80
2022/07/05 00:52:37;;;;;;;3.60;2.72;;;;;;;15.01;69.07;101899.03;4966871;28;20030;-80
2022/07/05 00:55:02;;;;;;;5.15;2.83;;;;;;;14.95;69.42;101902.91;4968111;28;20031;-80
2022/07/05 00:57:28;;;;;;;5.95;3.08;;;;;;;14.95;69.15;101910.94;4967693;28;20473;-80
2022/07/05 00:59:53;;;;;;;3.30;3.00;;;;;;;14.92;69.77;101912.91;4965997;28;20127;-80
2022/07/05 01:02:19;;;;;;;4.03;3.00;;;;;;;14.92;69.35;101916.47;4966088;28;20113;-80
2022/07/05 01:04:47;;;;;;;4.30;3.00;;;;;;;14.84;69.93;101904.41;4983335;28;20031;-80
2022/07/05 01:07:12;;;;;;;5.63;3.08;;;;;;;14.81;70.06;101913.47;4967028;28;20402;-80
2022/07/05 01:09:38;;;;;;;6.53;2.95;;;;;;;14.73;70.23;101909.47;4967479;28;20022;-80
2022/07/05 01:12:03;;;;;;;3.58;2.80;;;;;;;14.72;70.05;101913.09;4968299;28;20081;-80
2022/07/05 01:14:29;;;;;;;4.40;3.33;;;;;;;14.65;70.48;101912.53;4967277;28;20033;-80
2022/07/05 01:16:54;;;;;;;4.03;3.20;;;;;;;14.63;71.16;101919.75;4969455;28;20090;-80
2022/07/05 01:19:21;;;;;;;5.65;3.60;;;;;;;14.55;71.59;101917.50;4968419;28;20418;-80
2022/07/05 01:21:48;;;;;;;5.22;3.75;;;;;;;14.55;71.21;101911.28;4968434;28;20046;-80
2022/07/05 01:24:16;;;;;;;3.35;3.00;;;;;;;14.51;71.06;101912.38;4962655;28;20070;-80
2022/07/05 01:26:44;;;;;;;4.30;3.10;;;;;;;14.49;71.56;101911.56;4959457;28;20031;-79
2022/07/05 01:29:10;;;;;;;6.38;3.58;;;;;;;14.50;71.34;101908.81;4966168;28;20027;-79
2022/07/05 01:31:39;;;;;;;4.88;3.35;;;;;;;14.52;71.29;101916.78;4967546;28;20038;-79
2022/07/05 01:34:06;;;;;;;3.85;3.10;;;;;;;14.47;71.45;101913.44;4966577;28;20098;-79
2022/07/05 01:36:33;;;;;;;4.60;2.97;;;;;;;14.47;71.24;101913.44;4965956;28;20062;-79
2022/07/05 01:38:59;;;;;;;4.30;3.25;;;;;;;14.49;70.82;101912.44;4966426;28;20491;-79
2022/07/05 01:41:24;;;;;;;4.22;3.28;;;;;;;14.49;71.65;101915.09;4967443;28;20027;-79
2022/07/05 01:43:50;;;;;;;5.45;3.25;;;;;;;14.45;71.09;101911.69;4968590;28;20037;-79
2022/07/05 01:46:18;;;;;;;5.15;3.80;;;;;;;14.39;72.09;101914.69;4966173;28;20043;-79
2022/07/05 01:48:44;;;;;;;4.93;3.20;;;;;;;14.35;72.41;101917.59;4965832;28;20124;-79
2022/07/05 01:51:21;;;;;;;5.28;3.38;;;;;;;14.36;72.21;101911.28;4966610;28;20047;-79
2022/07/05 01:53:49;;;;;;;4.72;3.30;;;;;;;14.26;72.99;101921.59;4968254;28;20041;-79
2022/07/05 01:56:15;;;;;;;3.58;3.00;;;;;;;14.19;73.07;101912.13;4964467;28;20043;-79
2022/07/05 01:58:41;;;;;;;7.63;3.15;;;;;;;14.20;73.13;101917.38;4965342;28;20504;-80
2022/07/05 02:01:06;;;;;;;4.13;2.95;;;;;;;14.19;73.37;101915.66;4968133;28;20439;-80
2022/07/05 02:03:32;;;;;;;6.38;3.03;;;;;;;14.17;73.01;101911.31;4967218;28;20030;-79
2022/07/05 02:05:57;;;;;;;4.30;3.33;;;;;;;14.07;73.50;101916.25;4967457;28;20061;-80
2022/07/05 02:08:28;;;;;;;4.20;2.97;;;;;;;14.05;73.30;101917.28;4965967;28;20038;-79
2022/07/05 02:10:54;;;;;;;4.38;3.55;;;;;;;14.00;73.47;101916.63;4966955;28;20035;-79
2022/07/05 02:13:20;;;;;;;4.07;3.28;;;;;;;14.00;73.09;101919.28;4963887;28;20362;-79
2022/07/05 02:15:46;;;;;;;5.20;3.00;;;;;;;13.97;73.34;101931.03;4970543;28;20477;-79
2022/07/05 02:18:11;;;;;;;5.15;3.58;;;;;;;13.94;73.50;101920.47;4965289;28;20073;-79
2022/07/05 02:20:38;;;;;;;4.15;3.40;;;;;;;13.88;73.75;101910.94;4959492;28;20027;-79
2022/07/05 02:23:04;;;;;;;6.70;3.28;;;;;;;13.85;74.06;101918.22;4964499;28;20027;-79
2022/07/05 02:25:29;;;;;;;3.53;3.22;;;;;;;13.83;73.60;101920.97;4964945;28;20038;-79
2022/07/05 02:27:55;;;;;;;3.60;3.17;;;;;;;13.83;74.03;101923.63;4963731;28;20038;-79
2022/07/05 02:30:21;;;;;;;4.15;3.42;;;;;;;13.79;74.10;101914.00;4964200;28;20038;-79
2022/07/05 02:32:46;;;;;;;4.70;3.88;;;;;;;13.76;74.34;101913.31;4962091;28;20031;-79
2022/07/05 02:35:12;;;;;;;5.80;3.58;;;;;;;13.76;73.97;101927.56;4966207;28;20136;-79
2022/07/05 02:37:41;;;;;;;7.07;3.67;;;;;;;13.75;74.10;101922.25;4967966;28;20030;-79
2022/07/05 02:40:07;;;;;;;6.35;4.43;;;;;;;13.72;74.54;101919.75;4960318;28;20070;-79
2022/07/05 02:42:33;;;;;;;11.23;6.40;;;;;;;13.73;74.35;101926.84;4964521;28;20076;-79
2022/07/05 02:44:59;;;;;;;12.40;6.15;;;;;;;13.72;74.67;101925.09;4973804;28;20026;-79
2022/07/05 02:47:24;;;;;;;10.93;5.70;;;;;;;13.69;74.76;101921.63;4969647;28;20039;-79
2022/07/05 02:49:49;;;;;;;10.45;5.70;;;;;;;13.69;74.39;101920.75;4966855;28;20031;-79
2022/07/05 02:52:15;;;;;;;10.05;5.47;;;;;;;13.61;75.08;101920.25;4970017;28;20039;-79
2022/07/05 02:54:40;;;;;;;6.80;4.57;;;;;;;13.65;75.27;101924.50;4970196;28;20069;-79
2022/07/05 02:57:05;;;;;;;8.48;5.15;;;;;;;13.63;75.24;101924.59;4964769;28;20030;-79
2022/07/05 02:59:31;;;;;;;7.10;4.40;;;;;;;13.60;75.35;101922.06;4963833;28;20118;-80
2022/07/05 03:01:56;;;;;;;7.90;4.97;;;;;;;13.52;75.63;101918.00;4965817;28;20531;-79
2022/07/05 03:04:22;;;;;;;6.40;4.60;;;;;;;13.56;75.74;101920.47;4965225;28;20062;-79
2022/07/05 03:06:47;;;;;;;7.80;4.15;;;;;;;13.58;75.79;101929.25;4964561;28;20468;-79
2022/07/05 03:09:12;;;;;;;6.40;4.22;;;;;;;13.54;75.71;101927.66;4965403;28;20244;-79
2022/07/05 03:11:37;;;;;;;5.65;4.28;;;;;;;13.53;75.87;101920.59;4962621;28;20035;-79
2022/07/05 03:14:03;;;;;;;6.22;4.00;;;;;;;13.51;76.12;101919.81;4966925;28;20032;-79
2022/07/05 03:16:29;;;;;;;4.40;4.00;;;;;;;13.50;76.13;101925.22;4963708;28;20062;-79
2022/07/05 03:18:55;;;;;;;5.70;3.60;;;;;;;13.44;76.37;101921.88;4965387;28;20035;-79
2022/07/05 03:21:20;;;;;;;4.00;3.67;;;;;;;13.43;76.29;101924.63;4965238;28;20358;-79
2022/07/05 03:23:45;;;;;;;4.10;3.47;;;;;;;13.43;76.31;101924.63;4963841;28;20085;-79
2022/07/05 03:26:10;;;;;;;6.72;4.25;;;;;;;13.43;76.35;101928.19;4981088;28;20113;-79
2022/07/05 03:28:36;;;;;;;6.43;4.35;;;;;;;13.38;76.67;101927.53;4965939;28;20629;-78
2022/07/05 03:31:01;;;;;;;5.28;4.25;;;;;;;13.34;76.37;101923.25;4962328;28;20062;-79
2022/07/05 03:33:27;;;;;;;5.50;4.20;;;;;;;13.35;76.82;101921.44;4964176;28;20035;-79
2022/07/05 03:35:52;;;;;;;5.80;4.47;;;;;;;13.36;76.58;101923.16;4959890;28;20026;-78
2022/07/05 03:38:17;;;;;;;5.75;4.30;;;;;;;13.26;77.04;101925.41;4969068;28;20034;-79
2022/07/05 03:40:42;;;;;;;6.45;4.45;;;;;;;13.31;77.02;101926.06;4966544;28;20027;-79
2022/07/05 03:43:08;;;;;;;6.05;4.22;;;;;;;13.30;76.88;101935.03;4969423;28;20023;-79
2022/07/05 03:45:33;;;;;;;5.03;4.53;;;;;;;13.29;77.18;101930.59;4967613;28;20045;-79
2022/07/05 03:48:00;;;;;;;5.63;4.97;;;;;;;13.28;77.20;101936.88;4968216;28;20042;-79
2022/07/05 03:50:26;;;;;;;6.70;5.15;;;;;;;13.24;77.87;101937.97;4967694;28;20054;-79
2022/07/05 03:52:51;;;;;;;5.97;4.70;;;;;;;13.16;77.95;101946.28;4969104;28;20117;-79
2022/07/05 03:55:17;;;;;;;7.00;5.00;;;;;;;13.09;78.91;101942.16;4969094;28;20429;-79
2022/07/05 03:57:42;;;;;;;6.32;4.78;;;;;;;13.08;78.81;101944.88;4966296;28;20042;-78
2022/07/05 04:00:08;;;;;;;6.90;4.88;;;;;;;13.13;79.41;101954.47;4966292;28;20030;-78
2022/07/05 04:02:34;;;;;;;5.97;5.10;;;;;;;13.09;79.22;101947.50;4969348;28;20481;-79
2022/07/05 04:04:59;;;;;;;6.03;5.13;;;;;;;13.14;79.24;101950.84;4965617;28;20066;-79
2022/07/05 04:07:24;;;;;;;7.07;5.32;;;;;;;13.16;79.59;101954.28;4960690;28;20026;-78
2022/07/05 04:09:50;;;;;;;8.70;5.82;;;;;;;13.18;80.19;101960.47;4960834;28;20110;-78
2022/07/05 04:12:15;;;;;;;10.30;5.55;;;;;;;13.18;80.29;101968.47;4959145;28;20057;-78
2022/07/05 04:14:40;;;;;;;6.25;5.63;;;;;;;13.18;80.20;101957.78;4958746;28;20456;-79
2022/07/05 04:17:06;;;;;;;10.10;5.50;;;;;;;13.38;79.81;101966.78;4957923;28;20153;-79
2022/07/05 04:19:31;;;;;;;7.43;5.82;;;;;;;13.43;79.87;101968.28;4959580;28;20125;-79
2022/07/05 04:21:56;;;;;;;6.20;5.05;;;;;;;13.46;79.88;101964.63;4956853;28;20031;-80
2022/07/05 04:24:22;;;;;;;7.10;5.05;;;;;;;13.50;79.50;101973.34;4960547;28;20392;-80
2022/07/05 04:26:47;;;;;;;7.43;5.55;;;;;;;13.49;79.43;101967.13;4953069;28;20151;-80
2022/07/05 04:29:12;;;;;;;6.32;5.00;;;;;;;13.47;79.36;101963.69;4957504;28;20106;-80
2022/07/05 04:31:37;;;;;;;8.90;5.38;;;;;;;13.53;79.42;101971.41;4960350;28;20038;-80
2022/07/05 04:34:03;;;;;;;8.75;5.47;;;;;;;13.57;79.11;101975.69;4960771;28;20046;-80
2022/07/05 04:36:28;;;;;;;7.10;5.35;;;;;;;13.65;79.13;101991.41;4964224;28;20289;-80
2022/07/05 04:38:53;;;;;;;6.72;5.72;;;;;;;13.77;79.11;101976.59;4967187;28;20038;-79
2022/07/05 04:41:19;;;;;;;8.50;5.32;;;;;;;13.88;78.16;101982.31;4968925;28;20023;-79
2022/07/05 04:43:44;;;;;;;6.35;5.38;;;;;;;14.03;77.16;101983.41;4969301;28;20106;-79
2022/07/05 04:46:10;;;;;;;8.98;7.18;;;;;;;14.05;77.37;101986.88;4968090;28;20568;-81
2022/07/05 04:48:35;;;;;;;9.07;6.70;;;;;;;14.09;77.35;101986.66;4971140;28;20034;-79
2022/07/05 04:51:00;;;;;;;7.55;6.75;;;;;;;14.09;77.26;101983.13;4968482;28;20061;-80
2022/07/05 04:53:26;;;;;;;9.15;7.82;;;;;;;14.02;77.57;101982.53;4967794;28;20026;-80
2022/07/05 04:55:51;;;;;;;9.48;7.43;;;;;;;14.03;77.61;101980.72;4967604;28;20037;-80
2022/07/05 04:58:16;;;;;;;8.18;6.90;;;;;;;14.09;77.44;101983.13;4970726;28;20448;-80
2022/07/05 05:00:42;;;;;;;10.00;7.65;;;;;;;14.14;77.15;101975.72;4970022;28;20301;-80
2022/07/05 05:03:07;;;;;;;10.57;7.50;;;;;;;14.25;77.04;101976.06;4968734;28;20011;-80
2022/07/05 05:05:32;;;;;;;11.00;7.43;;;;;;;14.37;76.45;101978.16;4969545;28;20022;-80
2022/07/05 05:07:57;;;;;;;11.02;7.60;;;;;;;14.49;76.04;101968.69;4968039;28;20034;-80
2022/07/05 05:10:24;;;;;;;9.95;7.60;;;;;;;14.72;76.54;101977.41;4970076;28;20022;-80
2022/07/05 05:12:49;;;;;;;11.02;7.75;;;;;;;14.90;75.30;101971.97;4970256;28;20030;-80
2022/07/05 05:15:14;;;;;;;11.45;8.35;;;;;;;15.02;74.53;101958.91;4966479;28;20026;-80
2022/07/05 05:17:42;;;;;;;10.52;8.05;;;;;;;15.19;74.49;101978.50;4969814;28;20038;-80
2022/07/05 05:20:16;;;;;;;10.23;7.18;;;;;;;15.26;74.18;101975.50;4966585;28;20058;-80
2022/07/05 05:22:42;;;;;;;11.50;8.18;;;;;;;15.39;73.73;101984.66;4950329;28;20552;-80
2022/07/05 05:25:08;;;;;;;8.45;7.50;;;;;;;15.52;73.22;101984.88;4964523;28;20151;-80
2022/07/05 05:27:33;;;;;;;9.00;6.72;;;;;;;15.57;72.59;101988.16;4969238;28;20038;-80
2022/07/05 05:29:59;;;;;;;10.30;7.20;;;;;;;15.65;72.04;101988.66;4984690;28;20524;-80
2022/07/05 05:32:24;;;;;;;11.73;7.80;;;;;;;15.67;72.31;101987.63;4968383;28;20027;-80
2022/07/05 05:34:49;;;;;;;8.85;7.20;;;;;;;15.72;72.14;101978.44;4969117;28;20433;-80
2022/07/05 05:37:15;;;;;;;10.35;7.70;;;;;;;15.80;71.88;101979.78;4968061;28;20042;-80
2022/07/05 05:39:40;;;;;;;10.63;8.35;;;;;;;15.85;72.21;101983.06;4982614;28;20456;-81
2022/07/05 05:42:06;;;;;;;11.18;9.07;;;;;;;15.98;71.90;101990.47;4970578;28;20031;-81
2022/07/05 05:44:31;;;;;;;12.20;9.50;;;;;;;16.04;71.20;101990.09;4962090;28;20034;-81
2022/07/05 05:46:56;;;;;;;11.05;9.13;;;;;;;16.20;71.20;101988.28;4967394;28;20468;-81
2022/07/05 05:49:22;;;;;;;10.65;9.10;;;;;;;16.39;70.44;101988.13;4966457;28;20066;-81
2022/07/05 05:51:47;;;;;;;10.90;8.20;;;;;;;16.63;68.85;102004.66;4968544;28;20412;-81
2022/07/05 05:54:12;;;;;;;13.20;9.02;;;;;;;16.79;68.32;101997.47;4965759;28;20039;-80
2022/07/05 05:56:40;;;;;;;11.27;9.15;;;;;;;16.85;68.75;102001.63;4969830;28;20536;-80
2022/07/05 05:59:06;;;;;;;12.05;9.15;;;;;;;16.95;66.82;101996.56;4969931;28;20077;-79
2022/07/05 06:01:31;;;;;;;12.93;9.68;;;;;;;17.00;65.32;102002.53;4972846;28;20057;-79
2022/07/05 06:03:56;;;;;;;12.02;9.57;;;;;;;17.02;65.57;102006.00;4988520;28;20027;-80
2022/07/05 06:06:22;;;;;;;11.57;9.20;;;;;;;17.12;65.80;102024.19;4988492;28;20027;-79
2022/07/05 06:08:47;;;;;;;12.52;9.63;;;;;;;17.23;65.71;102023.56;4982994;28;20031;-80
2022/07/05 06:11:13;;;;;;;12.45;9.38;;;;;;;17.31;65.07;102013.19;4980903;28;20392;-80
2022/07/05 06:13:38;;;;;;;12.65;9.27;;;;;;;17.45;64.58;102012.34;4979033;28;20035;-79
2022/07/05 06:16:06;;;;;;;10.05;8.98;;;;;;;17.60;64.22;102014.09;4971691;28;20390;-80
2022/07/05 06:18:31;;;;;;;13.00;8.68;;;;;;;17.76;62.75;102026.63;4969665;28;20065;-80
2022/07/05 06:20:56;;;;;;;11.35;8.18;;;;;;;17.80;62.58;102023.63;4968826;28;20058;-80
2022/07/05 06:23:22;;;;;;;10.75;7.90;;;;;;;17.86;62.68;102025.09;4973807;28;20049;-80
2022/07/05 06:25:47;;;;;;;11.48;8.40;;;;;;;17.91;62.45;102026.53;4965310;28;20034;-80
2022/07/05 06:28:12;;;;;;;8.88;7.53;;;;;;;17.96;60.87;102023.53;4967600;28;20117;-80
2022/07/05 06:30:38;;;;;;;10.60;7.75;;;;;;;17.90;61.37;102018.56;4968726;28;20546;-80
2022/07/05 06:33:04;;;;;;;11.40;7.70;;;;;;;17.88;61.21;102023.16;4965315;28;20504;-80
2022/07/05 06:35:30;;;;;;;8.52;6.97;;;;;;;17.91;60.48;102029.22;4966776;28;20105;-79
2022/07/05 06:38:07;;;;;;;9.93;7.18;;;;;;;17.95;61.44;102035.28;4972758;28;20033;-80
2022/07/05 06:40:38;;;;;;;9.45;7.15;;;;;;;18.09;61.43;102034.41;4975311;28;20073;-80
2022/07/05 06:43:07;;;;;;;7.57;6.80;;;;;;;18.40;60.58;102036.88;4968334;28;20085;-80
2022/07/05 06:45:33;;;;;;;9.75;6.57;;;;;;;18.61;59.40;102026.53;4971127;28;20054;-79
2022/07/05 06:48:00;;;;;;;11.20;6.88;;;;;;;18.88;58.52;102041.84;4969333;28;20039;-79
2022/07/05 06:50:28;;;;;;;14.93;7.70;;;;;;;19.05;56.45;102030.78;4968456;28;20456;-80
2022/07/05 06:52:53;;;;;;;15.43;6.75;;;;;;;19.16;55.42;102035.47;4969904;28;20027;-81
2022/07/05 06:55:19;;;;;;;21.98;8.48;;;;;;;19.26;55.07;102033.84;4965780;28;20275;-82
2022/07/05 06:57:45;;;;;;;29.50;10.45;;;;;;;19.41;55.40;102031.94;4970915;28;20039;-79
2022/07/05 07:00:12;;;;;;;29.17;11.02;;;;;;;19.47;54.91;102030.66;4969171;28;20492;-80
2022/07/05 07:02:37;;;;;;;28.75;10.40;;;;;;;19.46;55.15;102032.50;4964374;28;20358;-79
2022/07/05 07:05:02;;;;;;;33.80;11.00;;;;;;;19.39;55.63;102040.13;4966735;28;20033;-79
2022/07/05 07:10:14;;;;;;;39.28;12.20;;;;;;;19.48;56.37;102030.56;4975618;28;20218;-79
2022/07/05 07:12:40;;;;;;;45.08;14.48;;;;;;;19.58;56.46;102033.47;4964804;28;20584;-79
2022/07/05 07:15:06;;;;;;;43.03;13.88;;;;;;;19.63;55.52;102044.84;4969746;28;20033;-78
2022/07/05 07:17:31;;;;;;;40.92;13.30;;;;;;;19.78;55.58;102034.81;4972226;28;20030;-80
2022/07/05 07:19:56;;;;;;;37.80;13.43;;;;;;;20.03;57.08;102028.53;4970285;28;20340;-79
2022/07/05 07:22:22;;;;;;;28.58;10.35;;;;;;;20.42;54.93;102042.81;4972481;28;20034;-79
2022/07/05 07:24:47;;;;;;;20.83;8.35;;;;;;;20.84;53.51;102039.63;4968665;28;20027;-80
2022/07/05 07:27:12;;;;;;;21.00;8.40;;;;;;;21.18;52.87;102047.91;4971827;28;20085;-80
2022/07/05 07:29:39;;;;;;;19.35;7.60;;;;;;;21.70;51.94;102043.88;4971115;28;20033;-80
2022/07/05 07:32:06;;;;;;;15.32;6.80;;;;;;;22.33;51.22;102052.44;4971068;28;20042;-79
2022/07/05 07:34:32;;;;;;;13.32;5.82;;;;;;;22.81;49.28;102061.06;4972065;28;20402;-80
2022/07/05 07:36:57;;;;;;;14.32;6.63;;;;;;;22.92;48.23;102060.22;4973065;28;20097;-78
2022/07/05 07:39:23;;;;;;;15.88;6.32;;;;;;;22.78;49.06;102061.34;4972526;28;20030;-78
2022/07/05 07:41:49;;;;;;;13.93;6.60;;;;;;;22.67;49.28;102065.94;4966194;28;20480;-79
2022/07/05 07:44:14;;;;;;;10.77;6.50;;;;;;;22.55;49.48;102059.66;4973222;28;20508;-82
2022/07/05 07:46:39;;;;;;;12.93;6.78;;;;;;;22.44;49.99;102059.69;4968567;28;20026;-82
2022/07/05 07:49:06;;;;;;;15.32;6.35;;;;;;;22.32;50.58;102064.25;4971545;28;20464;-81
2022/07/05 07:51:31;;;;;;;10.93;6.40;;;;;;;22.21;50.71;102056.13;4979695;28;20130;-80
2022/07/05 07:53:57;;;;;;;12.02;6.50;;;;;;;22.17;51.19;102066.38;4973135;28;20113;-81
2022/07/05 07:56:22;;;;;;;11.48;6.57;;;;;;;22.19;51.74;102058.09;4965845;28;20043;-81
2022/07/05 07:58:48;;;;;;;16.65;10.55;;;;;;;22.12;51.13;102061.31;4977713;28;20041;-81
2022/07/05 08:01:14;;;;;;;14.60;8.30;;;;;;;22.11;51.03;102066.81;4970582;28;20027;-81
2022/07/05 08:03:43;;;;;;;12.90;7.82;;;;;;;22.04;52.04;102062.88;4972005;28;20840;-81
2022/07/05 08:06:10;;;;;;;10.73;6.18;;;;;;;22.26;52.61;102060.19;4974405;28;20037;-81
2022/07/05 08:08:38;;;;;;;9.65;6.13;;;;;;;22.59;50.32;102056.56;4977485;28;20023;-81
2022/07/05 08:11:03;;;;;;;10.48;6.70;;;;;;;22.65;50.41;102052.47;4972567;28;20027;-81
2022/07/05 08:13:29;;;;;;;13.82;7.10;;;;;;;22.84;50.59;102068.97;4973997;28;20054;-81
2022/07/05 08:15:54;;;;;;;9.35;6.80;;;;;;;22.80;50.84;102063.91;4971466;28;20034;-81
2022/07/05 08:23:47;;;;;;;16.63;6.70;;;;;;;22.99;49.72;102065.97;4971357;28;20402;-80
2022/07/05 08:26:12;;;;;;;10.13;6.47;;;;;;;22.87;50.57;102060.56;4972539;28;20050;-81
2022/07/05 08:28:37;;;;;;;11.20;6.55;;;;;;;23.01;49.74;102069.44;4973222;28;20027;-81
2022/07/05 08:31:03;;;;;;;12.00;7.07;;;;;;;23.16;49.63;102069.97;4975166;28;20047;-81
2022/07/05 08:33:28;;;;;;;13.48;6.72;;;;;;;23.14;49.02;102061.97;4974367;28;20077;-81
2022/07/05 08:35:54;;;;;;;10.57;6.32;;;;;;;23.24;49.09;102054.78;4966530;28;20488;-81
2022/07/05 08:38:19;;;;;;;11.02;5.97;;;;;;;23.50;49.32;102067.97;4970043;28;20034;-81
2022/07/05 08:40:49;;;;;;;10.23;7.32;;;;;;;23.55;48.55;102049.41;4968999;28;20046;-81
2022/07/05 08:43:15;;;;;;;9.05;6.63;;;;;;;23.78;47.87;102055.56;4971053;28;20030;-81
2022/07/05 08:45:43;;;;;;;12.55;6.63;;;;;;;23.88;47.95;102051.06;4965715;28;21154;-80
2022/07/05 08:48:09;;;;;;;12.95;7.00;;;;;;;24.32;47.39;102055.22;4970559;28;20399;-80
2022/07/05 08:50:36;;;;;;;9.20;5.38;;;;;;;24.59;45.27;102054.63;4973652;28;20430;-80
2022/07/05 08:53:03;;;;;;;10.88;6.47;;;;;;;24.71;44.98;102052.66;4971307;28;20147;-80
2022/07/05 08:55:30;;;;;;;12.75;5.95;;;;;;;24.90;46.01;102059.97;4969934;28;20038;-80
2022/07/05 08:57:56;;;;;;;13.15;5.70;;;;;;;25.99;43.31;102055.13;4972956;28;20817;-80
2022/07/05 09:00:21;;;;;;;12.10;5.72;;;;;;;26.47;41.42;102052.22;4965339;28;20022;-80
2022/07/05 09:02:46;;;;;;;9.50;6.13;;;;;;;26.44;40.19;102057.97;4969063;28;20468;-80
2022/07/05 09:05:14;;;;;;;9.60;6.47;;;;;;;26.41;40.22;102055.50;4964997;28;20026;-80
2022/07/05 09:07:48;;;;;;;6.53;4.35;;;;;;;25.99;40.81;102061.44;4974246;28;20113;-80
2022/07/05 09:10:14;;;;;;;7.35;4.80;;;;;;;25.14;41.90;102067.75;4974423;28;20101;-80
2022/07/05 09:12:40;;;;;;;9.93;5.45;;;;;;;24.44;42.82;102071.50;4969698;28;20076;-80
2022/07/05 09:15:05;;;;;;;6.63;4.70;;;;;;;24.44;41.94;102069.63;4968615;28;20041;-80
2022/07/05 09:17:31;;;;;;;8.15;5.05;;;;;;;25.81;41.89;102061.38;4976223;28;20027;-80
2022/07/05 09:20:12;;;;;;;6.93;4.53;;;;;;;28.12;37.15;102069.88;4978235;28;20034;-80
2022/07/05 09:22:44;;;;;;;8.43;4.95;;;;;;;29.92;34.49;102072.91;4970845;28;20106;-80
2022/07/05 09:25:15;;;;;;;8.52;5.65;;;;;;;31.32;30.79;102069.31;4969250;28;20019;-79
2022/07/05 09:27:51;;;;;;;8.70;5.35;;;;;;;31.73;30.60;102072.53;4976819;28;20129;-80
2022/07/05 09:30:30;;;;;;;7.60;4.85;;;;;;;29.74;33.50;102079.47;4985961;28;20054;-79
2022/07/05 09:33:14;;;;;;;7.80;5.53;;;;;;;28.43;34.01;102083.06;4989915;28;20027;-79
2022/07/05 09:35:41;;;;;;;6.78;5.35;;;;;;;28.14;33.88;102076.06;4990275;28;20046;-79
2022/07/05 09:38:17;;;;;;;4.50;2.50;;;;;;;28.59;33.35;102074.03;4991952;28;20019;-79
2022/07/05 09:40:51;;;;;;;6.40;3.70;;;;;;;29.53;31.62;102077.25;4989155;28;20039;-80
2022/07/05 09:43:27;;;;;;;3.92;3.08;;;;;;;30.66;25.20;102076.25;4988212;28;20098;-79
2022/07/05 09:45:56;;;;;;;2.67;2.40;;;;;;;29.95;28.28;102067.09;5004211;28;20026;-80
2022/07/05 09:48:23;;;;;;;5.95;2.25;;;;;;;28.92;29.88;102066.72;4990832;28;20138;-79
2022/07/05 09:50:51;;;;;;;4.90;2.88;;;;;;;28.38;31.76;102063.50;4969785;28;20049;-79
2022/07/05 09:53:18;;;;;;;5.35;2.65;;;;;;;29.31;30.68;102064.25;4969910;28;20597;-80
2022/07/05 09:56:00;;;;;;;3.40;2.10;;;;;;;31.62;29.35;102055.63;4971184;28;20054;-80
2022/07/05 09:58:26;;;;;;;4.87;2.20;;;;;;;32.65;25.06;102047.34;4977742;28;20074;-80
2022/07/05 10:00:51;;;;;;;4.68;2.00;;;;;;;32.75;24.19;102046.16;4968516;28;20377;-80
2022/07/05 10:03:17;;;;;;;4.22;2.40;;;;;;;32.37;24.37;102049.09;4966164;28;20034;-80
2022/07/05 10:05:42;;;;;;;5.15;3.15;;;;;;;30.26;27.03;102045.19;4970465;28;20054;-80
2022/07/05 10:08:09;;;;;;;4.07;2.70;;;;;;;28.48;30.37;102047.81;4968381;28;20034;-79
2022/07/05 10:10:34;;;;;;;4.22;2.78;;;;;;;28.19;31.57;102048.19;4965127;28;20062;-80
2022/07/05 10:13:02;;;;;;;14.02;5.13;;;;;;;28.11;30.71;102042.69;4968607;28;20058;-80
2022/07/05 10:15:32;;;;;;;5.07;2.75;;;;;;;29.96;27.58;102044.94;4966634;28;20031;-80
2022/07/05 10:18:08;;;;;;;6.30;2.70;;;;;;;32.10;25.32;102047.88;4973355;28;20118;-80
2022/07/05 10:20:40;;;;;;;4.60;3.20;;;;;;;33.15;22.95;102044.66;4968190;28;20488;-80
2022/07/05 10:23:17;;;;;;;3.63;3.25;;;;;;;32.80;24.56;102050.03;4977016;28;20034;-80
2022/07/05 10:25:48;;;;;;;5.63;3.42;;;;;;;31.24;26.29;102059.19;4949191;28;20043;-80
2022/07/05 10:28:15;;;;;;;4.43;2.75;;;;;;;31.94;24.29;102054.44;4958759;28;20399;-80
2022/07/05 10:30:41;;;;;;;3.28;2.17;;;;;;;32.78;22.85;102051.28;4968768;28;20031;-81
2022/07/05 10:33:07;;;;;;;4.90;2.70;;;;;;;30.99;25.03;102058.53;4968432;28;20380;-81
2022/07/05 10:35:33;;;;;;;4.15;2.63;;;;;;;29.12;27.21;102051.72;4966338;28;20121;-79
2022/07/05 10:38:00;;;;;;;4.70;2.92;;;;;;;27.68;29.82;102058.16;4967699;28;20122;-80
2022/07/05 10:40:26;;;;;;;3.78;2.70;;;;;;;26.42;31.70;102068.16;4961314;28;20038;-80
2022/07/05 10:42:56;;;;;;;5.53;3.30;;;;;;;25.32;34.06;102065.16;4964781;28;20061;-80
2022/07/05 10:45:33;;;;;;;5.63;3.10;;;;;;;24.52;35.54;102058.06;4966416;28;20493;-80
2022/07/05 10:48:17;;;;;;;8.18;4.00;;;;;;;24.05;36.81;102057.72;4965676;28;20509;-80
2022/07/05 10:51:05;;;;;;;11.02;6.35;;;;;;;23.34;38.82;102063.84;4961906;28;20043;-79
2022/07/05 10:53:36;;;;;;;5.88;4.13;;;;;;;22.84;40.02;102070.81;4963100;28;20444;-79
2022/07/05 10:56:04;;;;;;;6.47;3.90;;;;;;;22.52;41.64;102068.91;4965407;28;20043;-79
2022/07/05 10:58:32;;;;;;;7.03;4.50;;;;;;;22.48;41.68;102067.44;4967193;28;20035;-78
2022/07/05 11:01:16;;;;;;;5.88;4.97;;;;;;;22.63;41.79;102070.75;4981845;28;20035;-79
2022/07/05 11:03:44;;;;;;;6.32;4.63;;;;;;;23.57;41.38;102066.44;4965435;28;20559;-78
2022/07/05 11:06:20;;;;;;;7.65;4.47;;;;;;;26.79;36.76;102064.50;4965045;28;20469;-78
2022/07/05 11:09:00;;;;;;;8.00;5.38;;;;;;;29.69;31.14;102064.56;4964382;28;20571;-78
2022/07/05 11:11:40;;;;;;;7.30;5.43;;;;;;;30.94;29.41;102071.13;4964301;28;20041;-78
2022/07/05 11:14:25;;;;;;;6.63;5.97;;;;;;;32.61;27.10;102061.72;4962389;28;20049;-79
2022/07/05 11:17:13;;;;;;;7.07;5.03;;;;;;;34.13;24.69;102059.44;4964624;28;20030;-78
2022/07/05 11:19:58;;;;;;;6.50;4.47;;;;;;;32.62;26.49;102057.91;4967398;28;20031;-79
2022/07/05 11:22:23;;;;;;;5.80;4.78;;;;;;;30.50;26.92;102057.97;4979350;28;20023;-78
2022/07/05 11:24:49;;;;;;;8.30;4.30;;;;;;;29.09;29.86;102062.16;4961600;28;20422;-79
2022/07/05 11:27:14;;;;;;;5.43;4.38;;;;;;;27.79;31.90;102061.47;4964275;28;20425;-79
2022/07/05 11:29:41;;;;;;;6.53;3.20;;;;;;;26.52;32.98;102057.22;4965976;28;20154;-78